• Join FlightAware (Why Join?)
  • Login
  • US Flag 
09:48AM EDT


 

Airport Tracker/Info


-or-


 

Live Flight TrackerFlight Track Log ✈ SWA378 ✈ 23-Aug-2013 ✈ KBWI - KLAS

Flight Track Log - Related Links

Times and Time Zones

All times are in EDT time to prevent confusion due to time zone crossing. See the SWA378 flight status page for this flight to view local times or setup timezone preferences in your user account.

Time Position Orientation Groundspeed Altitude Reporting Facility
EDT Latitude Longitude Course Direction KTS MPH feet Rate Location/Type
07:31AM 39.1880 -76.7990 283° West 233 268 3,600  Level FlightAware
07:31AM 39.1930 -76.8260 283° West 243 280 4,300 1,920 Climbing FlightAware
07:31AM 39.1990 -76.8550 285° West 269 310 4,800 2,520 Climbing FlightAware
07:32AM 39.2050 -76.8900 282° West 269 310 6,100 3,420 Climbing FlightAware
07:32AM 39.2120 -76.9310 282° West 268 308 7,500 3,420 Climbing FlightAware
07:33AM 39.2140 -76.9610 275° West 273 314 8,500 2,820 Climbing FlightAware
07:33AM 39.2140 -76.9960 270° West 279 321 9,400 2,160 Climbing FlightAware
07:33AM 39.2140 -77.0580 270° West 306 352 10,600 1,500 Climbing FlightAware
07:34AM 39.2110 -77.1280 267° West 349 402 11,200 1,260 Climbing FlightAware
07:34AM 39.1990 -77.1590 243° Southwest 363 418 11,700 2,520 Climbing FlightAware
07:35AM 39.1840 -77.1790 226° Southwest 366 421 12,400 2,580 Climbing FlightAware
07:35AM 39.1330 -77.2230 214° Southwest 378 435 13,800 2,400 Climbing FlightAware
07:36AM 39.0830 -77.2660 214° Southwest 384 442 15,200 2,400 Climbing FlightAware
07:36AM 39.0300 -77.3110 213° Southwest 390 449 16,600 2,340 Climbing FlightAware
07:37AM 39.0140 -77.3310 224° Southwest 388 447 17,100 2,280 Climbing FlightAware
07:37AM 38.9880 -77.3950 242° Southwest 388 447 18,300 2,100 Climbing FlightAware
07:38AM 38.9720 -77.4820 257° West 393 452 19,600 1,800 Climbing FlightAware
07:38AM 38.9600 -77.5610 259° West 404 465 20,500 1,620 Climbing FlightAware
07:39AM 38.9450 -77.6510 258° West 411 473 21,600 1,620 Climbing FlightAware
07:39AM 38.9310 -77.7390 258° West 417 480 22,500 1,380 Climbing FlightAware
07:40AM 38.9190 -77.8140 258° West 423 487 23,200 1,320 Climbing FlightAware
07:41AM 38.9040 -77.9060 258° West 431 496 24,000 1,140 Climbing FlightAware
07:41AM 38.8890 -77.9960 258° West 439 505 24,600 1,140 Climbing FlightAware
07:42AM 38.8740 -78.0870 258° West 443 510 25,400 1,320 Climbing FlightAware
07:42AM 38.8600 -78.1700 258° West 444 511 26,100 1,200 Climbing FlightAware
07:43AM 38.8540 -78.2630 265° West 446 513 26,800 1,140 Climbing FlightAware
07:44AM 38.8530 -78.3580 269° West 451 519 27,500 1,140 Climbing FlightAware
07:44AM 38.8510 -78.4650 269° West 450 518 28,300 1,500 Climbing FlightAware
07:45AM 38.8500 -78.5520 269° West 441 507 29,300 1,620 Climbing FlightAware
07:45AM 38.8478 -78.6408 269° West 441 507 30,200 1,440 Climbing Washington Center
07:46AM 38.8478 -78.7928 270° West 435 501 31,700 540 Climbing Washington Center
07:52AM 38.8310 -79.6680 270° West 420 483 34,000 360 Climbing FlightAware
07:53AM 38.8290 -79.7570 268° West 416 479 34,000 480 Level FlightAware
07:53AM 38.8270 -79.8350 268° West 413 475 34,600 1,020 Climbing FlightAware
07:54AM 38.8250 -79.9210 268° West 410 472 35,200 960 Climbing FlightAware
07:55AM 38.8230 -80.0100 268° West 405 466 35,800 660 Climbing FlightAware
07:55AM 38.8210 -80.0850 268° West 402 463 36,000 120 Climbing FlightAware
07:56AM 38.8180 -80.1710 267° West 403 464 36,000  Level FlightAware
07:56AM 38.8160 -80.2570 268° West 403 464 36,000  Level FlightAware
07:57AM 38.8140 -80.3350 268° West 403 464 36,000  Level FlightAware
07:57AM 38.8120 -80.4140 268° West 403 464 36,000  Level FlightAware
07:58AM 38.8090 -80.5080 268° West 404 465 36,000  Level FlightAware
07:59AM 38.8070 -80.5930 268° West 405 466 36,000  Level FlightAware
07:59AM 38.8040 -80.6730 267° West 405 466 36,000  Level FlightAware
08:00AM 38.8010 -80.7570 267° West 406 467 36,000  Level FlightAware
08:00AM 38.7990 -80.8370 268° West 407 468 36,000  Level FlightAware
08:01AM 38.7960 -80.9330 268° West 409 471 36,000  Level FlightAware
08:01AM 38.7930 -81.0110 267° West 410 472 36,000  Level FlightAware
08:02AM 38.7900 -81.1020 268° West 411 473 36,000  Level FlightAware
08:03AM 38.7870 -81.1880 267° West 411 473 36,000  Level FlightAware
08:03AM 38.7840 -81.2740 267° West 412 474 36,000  Level FlightAware
08:04AM 38.7810 -81.3470 267° West 412 474 36,000  Level FlightAware
08:04AM 38.7780 -81.4400 268° West 412 474 36,000  Level FlightAware
08:05AM 38.7740 -81.5260 267° West 412 474 36,000  Level FlightAware
08:06AM 38.7710 -81.6110 267° West 412 474 36,000  Level FlightAware
08:06AM 38.7680 -81.7010 268° West 413 475 36,000  Level FlightAware
08:07AM 38.7640 -81.7770 266° West 412 474 36,000  Level FlightAware
08:07AM 38.7610 -81.8660 268° West 412 474 36,000  Level FlightAware
08:08AM 38.7570 -81.9520 267° West 411 473 36,000  Level FlightAware
08:08AM 38.7540 -82.0320 267° West 412 474 36,000  Level FlightAware
08:09AM 38.7550 -82.1150 271° West 412 474 36,000  Level FlightAware
08:10AM 38.7560 -82.2030 271° West 412 474 36,000  Level FlightAware
08:10AM 38.7580 -82.2900 272° West 413 475 36,000  Level FlightAware
08:11AM 38.7590 -82.3700 271° West 414 476 36,000  Level FlightAware
08:11AM 38.7590 -82.4580 270° West 415 478 36,000  Level FlightAware
08:12AM 38.7600 -82.5450 271° West 415 478 36,000  Level FlightAware
08:13AM 38.7610 -82.6360 271° West 417 480 36,000  Level FlightAware
08:13AM 38.7620 -82.7140 271° West 417 480 36,000  Level FlightAware
08:14AM 38.7630 -82.8140 271° West 418 481 36,000  Level FlightAware
08:14AM 38.7630 -82.8870 270° West 419 482 36,000  Level FlightAware
08:15AM 38.7640 -82.9760 271° West 418 481 36,000  Level FlightAware
08:15AM 38.7650 -83.0570 271° West 418 481 36,000  Level FlightAware
08:16AM 38.7650 -83.1440 270° West 418 481 36,000  Level FlightAware
08:17AM 38.7650 -83.2420 270° West 418 481 36,000  Level FlightAware
08:17AM 38.7660 -83.3130 271° West 417 480 36,000  Level FlightAware
08:18AM 38.7660 -83.4150 270° West 417 480 36,000  Level FlightAware
08:18AM 38.7660 -83.5010 270° West 417 480 36,000  Level FlightAware
08:19AM 38.7660 -83.5870 270° West 417 480 36,000  Level FlightAware
08:20AM 38.7670 -83.6780 271° West 418 481 36,000  Level FlightAware
08:20AM 38.7670 -83.7510 270° West 419 482 36,000  Level FlightAware
08:21AM 38.7660 -83.8510 269° West 421 484 36,000  Level FlightAware
08:21AM 38.7660 -83.9540 270° West 422 486 36,000  Level FlightAware
08:22AM 38.7660 -84.0310 270° West 423 487 36,000  Level FlightAware
08:23AM 38.7660 -84.1250 270° West 424 488 36,000  Level FlightAware
08:23AM 38.7660 -84.2160 270° West 425 489 36,000  Level FlightAware
08:24AM 38.7650 -84.3160 269° West 424 488 36,000  Level FlightAware
08:24AM 38.7650 -84.4050 270° West 424 488 36,000  Level FlightAware
08:25AM 38.7640 -84.4960 269° West 423 487 36,000  Level FlightAware
08:26AM 38.7630 -84.5770 269° West 423 487 36,000  Level FlightAware
08:26AM 38.7630 -84.6550 270° West 423 487 36,000  Level FlightAware
08:27AM 38.7620 -84.7570 269° West 423 487 36,000  Level FlightAware
08:27AM 38.7610 -84.8450 269° West 423 487 36,000  Level FlightAware
08:28AM 38.7610 -84.9210 270° West 424 488 36,000  Level FlightAware
08:29AM 38.7600 -85.0160 269° West 424 488 36,000  Level FlightAware
08:29AM 38.7590 -85.1070 269° West 423 487 36,000  Level FlightAware
08:30AM 38.7570 -85.1960 268° West 423 487 36,000  Level FlightAware
08:30AM 38.7560 -85.2790 269° West 423 487 36,000  Level FlightAware
08:31AM 38.7550 -85.3680 269° West 424 488 36,000  Level FlightAware
08:31AM 38.7540 -85.4550 269° West 425 489 36,000  Level FlightAware
08:32AM 38.7530 -85.5440 269° West 425 489 36,000  Level FlightAware
08:33AM 38.7510 -85.6280 268° West 426 490 36,000  Level FlightAware
08:33AM 38.7500 -85.7190 269° West 426 490 36,000  Level FlightAware
08:34AM 38.7480 -85.8090 268° West 428 493 36,000  Level FlightAware
08:34AM 38.7470 -85.8890 269° West 429 494 36,000  Level FlightAware
08:35AM 38.7450 -85.9810 268° West 431 496 36,000  Level FlightAware
08:36AM 38.7430 -86.0740 268° West 432 497 36,000  Level FlightAware
08:36AM 38.7420 -86.1620 269° West 433 498 36,000  Level FlightAware
08:37AM 38.7400 -86.2450 268° West 434 499 36,000  Level FlightAware
08:37AM 38.7370 -86.3610 268° West 434 499 36,000  Level FlightAware
08:38AM 38.7350 -86.4680 269° West 434 499 36,000  Level FlightAware
08:39AM 38.7320 -86.5640 268° West 433 498 36,000  Level FlightAware
08:39AM 38.7300 -86.6450 268° West 432 497 36,000  Level FlightAware
08:40AM 38.7280 -86.7380 268° West 432 497 36,000  Level FlightAware
08:40AM 38.7260 -86.8250 268° West 432 497 36,000  Level FlightAware
08:41AM 38.7230 -86.9200 268° West 432 497 36,000  Level FlightAware
08:42AM 38.7210 -87.0030 268° West 432 497 36,000  Level FlightAware
08:42AM 38.7180 -87.0960 268° West 433 498 36,000  Level FlightAware
08:43AM 38.7160 -87.1870 268° West 433 498 36,000  Level FlightAware
08:43AM 38.7130 -87.2780 268° West 434 499 36,000  Level FlightAware
08:44AM 38.7100 -87.3650 267° West 435 501 36,000  Level FlightAware
08:45AM 38.7080 -87.4570 268° West 435 501 36,000  Level FlightAware
08:45AM 38.7050 -87.5450 268° West 435 501 36,000  Level FlightAware
08:46AM 38.7020 -87.6360 268° West 435 501 36,000  Level FlightAware
08:46AM 38.6980 -87.7310 267° West 436 502 36,000  Level FlightAware
08:47AM 38.6960 -87.8120 268° West 436 502 36,000  Level FlightAware
08:47AM 38.6920 -87.9040 267° West 438 504 36,000  Level FlightAware
08:48AM 38.6910 -87.9940 269° West 438 504 36,000  Level FlightAware
08:49AM 38.6910 -88.0870 270° West 439 505 36,000  Level FlightAware
08:49AM 38.6910 -88.1700 270° West 439 505 36,000  Level FlightAware
08:50AM 38.6910 -88.2780 270° West 439 505 36,000  Level FlightAware
08:50AM 38.6910 -88.3670 270° West 439 505 36,000  Level FlightAware
08:51AM 38.6900 -88.4670 269° West 438 504 36,000  Level FlightAware
08:52AM 38.6900 -88.5530 270° West 439 505 36,000  Level FlightAware
08:52AM 38.6900 -88.6520 270° West 440 506 36,000  Level FlightAware
08:53AM 38.6890 -88.7440 269° West 440 506 36,000  Level FlightAware
08:53AM 38.6890 -88.8260 270° West 439 505 36,000  Level FlightAware
08:54AM 38.6890 -88.9100 270° West 439 505 36,000  Level FlightAware
08:55AM 38.6880 -89.0000 269° West 440 506 36,000  Level FlightAware
08:55AM 38.6870 -89.1090 269° West 440 506 36,000  Level FlightAware
08:56AM 38.6860 -89.1860 269° West 439 505 36,000  Level FlightAware
08:56AM 38.6860 -89.2840 270° West 438 504 36,000  Level FlightAware
08:57AM 38.6850 -89.3770 269° West 439 505 36,000  Level FlightAware
08:57AM 38.6840 -89.4600 269° West 438 504 36,000  Level FlightAware
08:58AM 38.6830 -89.5440 269° West 436 502 36,000  Level FlightAware
08:59AM 38.6820 -89.6370 269° West 435 501 36,000  Level FlightAware
08:59AM 38.6810 -89.7180 269° West 434 499 36,000  Level FlightAware
09:00AM 38.6790 -89.8050 268° West 433 498 36,000  Level FlightAware
09:00AM 38.6780 -89.8920 269° West 436 502 36,000  Level FlightAware
09:01AM 38.6770 -89.9760 269° West 438 504 36,000  Level FlightAware
09:01AM 38.6750 -90.0650 268° West 437 503 36,000  Level FlightAware
09:02AM 38.6740 -90.1590 269° West 437 503 36,000  Level FlightAware
09:03AM 38.6720 -90.2600 269° West 436 502 36,000  Level FlightAware
09:03AM 38.6710 -90.3380 269° West 435 501 36,000  Level FlightAware
09:04AM 38.6690 -90.4270 268° West 433 498 36,000  Level FlightAware
09:05AM 38.6670 -90.5430 269° West 432 497 36,000  Level FlightAware
09:05AM 38.6650 -90.6290 268° West 431 496 36,000  Level FlightAware
09:06AM 38.6630 -90.7170 268° West 430 495 36,000  Level FlightAware
09:06AM 38.6610 -90.8120 268° West 429 494 36,000  Level FlightAware
09:07AM 38.6590 -90.8900 268° West 429 494 36,000  Level FlightAware
09:08AM 38.6560 -91.0130 268° West 429 494 36,000  Level FlightAware
09:08AM 38.6540 -91.1030 268° West 430 495 36,000  Level FlightAware
09:09AM 38.6510 -91.1990 268° West 430 495 36,000  Level FlightAware
09:09AM 38.6490 -91.2770 268° West 430 495 36,000  Level FlightAware
09:10AM 38.6470 -91.3780 269° West 432 497 36,000  Level FlightAware
09:11AM 38.6420 -91.5190 267° West 434 499 36,000  Level FlightAware
09:12AM 38.6390 -91.5970 267° West 434 499 36,000  Level FlightAware
09:12AM 38.6370 -91.7040 269° West 435 501 36,000  Level FlightAware
09:13AM 38.6340 -91.8070 268° West 436 502 36,000  Level FlightAware
09:14AM 38.6300 -91.9290 268° West 436 502 36,000  Level FlightAware
09:14AM 38.6260 -92.0080 266° West 436 502 36,000  Level FlightAware
09:15AM 38.6230 -92.0890 267° West 436 502 36,000  Level FlightAware
09:15AM 38.6200 -92.1680 267° West 436 502 36,000  Level FlightAware
09:16AM 38.6170 -92.3150 269° West 438 504 36,000  Level FlightAware
09:17AM 38.6130 -92.4090 267° West 438 504 36,000  Level FlightAware
09:17AM 38.6100 -92.5250 268° West 440 506 36,000  Level FlightAware
09:18AM 38.6060 -92.6090 267° West 441 507 36,000  Level FlightAware
09:19AM 38.6020 -92.7150 267° West 442 509 36,000  Level FlightAware
09:19AM 38.6000 -92.7800 268° West 442 509 36,000  Level FlightAware
09:20AM 38.5950 -92.8900 267° West 443 510 36,000  Level FlightAware
09:20AM 38.5920 -92.9790 268° West 444 511 36,000  Level FlightAware
09:21AM 38.5880 -93.0810 267° West 445 512 36,000  Level FlightAware
09:22AM 38.5840 -93.1670 267° West 446 513 36,000  Level FlightAware
09:22AM 38.5800 -93.2650 267° West 448 516 36,000  Level FlightAware
09:23AM 38.5770 -93.3410 267° West 448 516 36,000  Level FlightAware
09:23AM 38.5720 -93.4410 266° West 449 517 36,000  Level FlightAware
09:24AM 38.5680 -93.5200 266° West 449 517 36,000  Level FlightAware
09:24AM 38.5640 -93.6160 267° West 448 516 36,000  Level FlightAware
09:25AM 38.5590 -93.7100 266° West 447 514 36,000  Level FlightAware
09:26AM 38.5550 -93.8060 267° West 447 514 36,000  Level FlightAware
09:26AM 38.5510 -93.8920 267° West 447 514 36,000  Level FlightAware
09:27AM 38.5460 -93.9900 266° West 446 513 36,000  Level FlightAware
09:27AM 38.5410 -94.0840 266° West 445 512 36,000  Level FlightAware
09:28AM 38.5370 -94.1650 266° West 445 512 36,000  Level FlightAware
09:28AM 38.5320 -94.2620 266° West 444 511 36,000  Level FlightAware
09:29AM 38.5270 -94.3570 266° West 443 510 36,000  Level FlightAware
09:30AM 38.5220 -94.4480 266° West 442 509 36,000  Level FlightAware
09:30AM 38.5160 -94.5340 265° West 440 506 36,000  Level FlightAware
09:31AM 38.5100 -94.6250 265° West 439 505 36,000  Level FlightAware
09:31AM 38.5030 -94.7190 265° West 438 504 36,000  Level FlightAware
09:32AM 38.4970 -94.8080 265° West 438 504 36,000  Level FlightAware
09:33AM 38.4910 -94.8940 265° West 438 504 36,000  Level FlightAware
09:33AM 38.4840 -94.9870 265° West 439 505 36,000  Level FlightAware
09:34AM 38.4790 -95.0580 265° West 442 509 36,000  Level FlightAware
09:34AM 38.4710 -95.1680 265° West 444 511 36,000  Level FlightAware
09:35AM 38.4650 -95.2500 265° West 445 512 36,000  Level FlightAware
09:35AM 38.4580 -95.3470 265° West 446 513 36,000  Level FlightAware
09:36AM 38.4510 -95.4430 265° West 446 513 36,000  Level FlightAware
09:37AM 38.4440 -95.5400 265° West 446 513 36,000  Level FlightAware
09:37AM 38.4370 -95.6230 264° West 446 513 36,000  Level FlightAware
09:38AM 38.4310 -95.7040 265° West 445 512 36,000  Level FlightAware
09:38AM 38.4230 -95.8100 265° West 444 511 36,000  Level FlightAware
09:39AM 38.4160 -95.8970 264° West 444 511 36,000  Level FlightAware
09:40AM 38.4090 -95.9870 264° West 444 511 36,000  Level FlightAware
09:40AM 38.4010 -96.0800 264° West 444 511 36,000  Level FlightAware
09:41AM 38.3940 -96.1740 265° West 445 512 36,000  Level FlightAware
09:41AM 38.3890 -96.2340 264° West 445 512 36,000  Level FlightAware
09:42AM 38.3810 -96.3230 263° West 444 511 36,000  Level FlightAware
09:42AM 38.3730 -96.4280 264° West 445 512 36,000  Level FlightAware
09:43AM 38.3650 -96.5140 263° West 445 512 36,000  Level FlightAware
09:44AM 38.3570 -96.6100 264° West 445 512 36,000  Level FlightAware
09:44AM 38.3500 -96.6950 264° West 447 514 36,000  Level FlightAware
09:45AM 38.3420 -96.7880 264° West 449 517 36,000  Level FlightAware
09:45AM 38.3340 -96.8830 264° West 451 519 36,000  Level FlightAware
09:46AM 38.3250 -96.9790 263° West 452 520 36,000  Level FlightAware
09:46AM 38.3200 -97.0420 264° West 453 521 36,000  Level FlightAware
09:47AM 38.3110 -97.1380 263° West 453 521 36,000  Level FlightAware
09:47AM 38.3020 -97.2340 263° West 454 522 36,000  Level FlightAware
09:48AM 38.2940 -97.3280 264° West 455 524 36,000  Level FlightAware
09:49AM 38.2850 -97.4200 263° West 455 524 36,000  Level FlightAware
09:49AM 38.2770 -97.5130 264° West 455 524 36,000  Level FlightAware
09:50AM 38.2670 -97.6090 262° West 456 525 36,000  Level FlightAware
09:50AM 38.2590 -97.6970 263° West 456 525 36,000  Level FlightAware
09:51AM 38.2500 -97.7920 263° West 456 525 36,000  Level FlightAware
09:52AM 38.2410 -97.8880 263° West 457 526 36,000  Level FlightAware
09:52AM 38.2320 -97.9810 263° West 458 527 36,000  Level FlightAware
09:53AM 38.2230 -98.0750 263° West 458 527 36,000  Level FlightAware
09:53AM 38.2140 -98.1600 262° West 458 527 36,000  Level FlightAware
09:54AM 38.2060 -98.2420 263° West 457 526 36,000  Level FlightAware
09:54AM 38.1960 -98.3410 263° West 456 525 36,000 60 Level FlightAware
09:55AM 38.1860 -98.4430 263° West 459 528 36,100 600 Climbing FlightAware
09:56AM 38.1760 -98.5400 263° West 453 521 36,800 1,080 Climbing FlightAware
09:56AM 38.1670 -98.6240 262° West 448 516 37,400 1,020 Climbing FlightAware
09:57AM 38.1570 -98.7200 262° West 444 511 38,000 480 Climbing FlightAware
09:57AM 38.1490 -98.8030 263° West 447 514 38,000  Level FlightAware
09:58AM 38.1380 -98.9070 262° West 447 514 38,000  Level FlightAware
09:59AM 38.1290 -98.9910 262° West 449 517 38,000  Level FlightAware
09:59AM 38.1190 -99.0810 262° West 449 517 38,000  Level FlightAware
10:00AM 38.1110 -99.1600 263° West 449 517 38,000  Level FlightAware
10:00AM 38.1010 -99.2490 262° West 449 517 38,000  Level FlightAware
10:01AM 38.0920 -99.3290 262° West 449 517 38,000  Level FlightAware
10:02AM 38.0760 -99.4750 262° West 451 519 38,000  Level FlightAware
10:02AM 38.0660 -99.5550 261° West 451 519 38,000  Level FlightAware
10:03AM 38.0560 -99.6350 261° West 451 519 38,000  Level FlightAware
10:03AM 38.0460 -99.7150 261° West 451 519 38,000  Level FlightAware
10:04AM 38.0350 -99.7970 260° West 451 519 38,000  Level FlightAware
10:05AM 38.0250 -99.8790 261° West 451 519 38,000  Level FlightAware
10:05AM 38.0150 -99.9590 261° West 451 519 38,000  Level FlightAware
10:06AM 38.0050 -100.0440 262° West 451 519 38,000  Level FlightAware
10:07AM 37.9950 -100.1240 261° West 451 519 38,000  Level FlightAware
10:07AM 37.9820 -100.2260 261° West 451 519 38,000  Level FlightAware
10:08AM 37.9720 -100.3060 261° West 451 519 38,000  Level FlightAware
10:08AM 37.9620 -100.3820 261° West 451 519 38,000  Level FlightAware
10:09AM 37.9520 -100.4640 261° West 451 519 38,000  Level FlightAware
10:10AM 37.9420 -100.5440 261° West 451 519 38,000  Level FlightAware
10:10AM 37.9320 -100.6280 261° West 451 519 38,000  Level FlightAware
10:11AM 37.9210 -100.7110 260° West 451 519 38,000  Level FlightAware
10:12AM 37.8950 -101.0250 260° West 456 525 38,000  Level Kansas City Center
10:13AM 37.8719 -101.2014 261° West 459 528 38,000  Level Kansas City Center
10:14AM 37.8525 -101.3536 261° West 460 529 38,000  Level Kansas City Center
10:15AM 37.8294 -101.5333 261° West 463 533 38,000  Level Kansas City Center
10:16AM 37.8103 -101.6878 261° West 465 535 38,000  Level Kansas City Center
10:17AM 37.7861 -101.8683 260° West 467 537 38,000  Level Kansas City Center
10:18AM 37.7656 -102.0217 260° West 465 535 38,000  Level Kansas City Center
10:19AM 37.7422 -102.2003 261° West 463 533 38,000  Level Kansas City Center
10:19AM 37.7319 -102.2761 260° West 463 533 38,000  Level Denver Center
10:20AM 37.7072 -102.4533 260° West 461 531 38,000  Level Denver Center
10:21AM 37.6867 -102.6053 260° West 461 531 38,000  Level Denver Center
10:22AM 37.6622 -102.7819 260° West 459 528 38,000  Level Denver Center
10:24AM 37.6408 -102.9350 260° West 461 531 38,000  Level Denver Center
10:25AM 37.6194 -103.0864 260° West 460 529 38,000  Level Denver Center
10:26AM 37.5944 -103.2636 260° West 460 529 38,000  Level Denver Center
10:27AM 37.5725 -103.4150 260° West 460 529 38,000  Level Denver Center
10:28AM 37.5467 -103.5911 260° West 458 527 38,000  Level Denver Center
10:29AM 37.5239 -103.7419 259° West 458 527 38,000  Level Denver Center
10:30AM 37.4961 -103.9183 259° West 457 526 38,000  Level Denver Center
10:31AM 37.4714 -104.0806 259° West 470 541 38,000  Level Denver Center
10:32AM 37.4492 -104.2342 260° West 464 534 38,000  Level Denver Center
10:33AM 37.4225 -104.4114 259° West 460 529 38,000  Level Denver Center
10:34AM 37.3989 -104.5653 259° West 466 536 38,000  Level Denver Center
10:35AM 37.3708 -104.7461 259° West 471 542 38,000  Level Denver Center
10:36AM 37.3469 -104.9000 259° West 470 541 38,000  Level Denver Center
10:37AM 37.3219 -105.0531 258° West 467 537 38,000  Level Denver Center
10:38AM 37.2919 -105.2392 259° West 474 545 38,000  Level Denver Center
10:39AM 37.2683 -105.3892 259° West 471 542 38,000  Level Denver Center
10:40AM 37.2378 -105.5703 258° West 474 545 38,000  Level Denver Center
10:41AM 37.2117 -105.7236 258° West 471 542 38,000  Level Denver Center
10:42AM 37.1797 -105.9067 258° West 471 542 38,000  Level Denver Center
10:43AM 37.1561 -106.0603 259° West 470 541 38,000  Level Denver Center
10:44AM 37.1250 -106.2406 258° West 473 544 38,000  Level Denver Center
10:45AM 37.0983 -106.3933 258° West 470 541 38,000  Level Denver Center
10:46AM 37.0681 -106.5722 258° West 469 540 38,000  Level Denver Center
10:47AM 37.0406 -106.7242 257° West 469 540 38,000  Level Denver Center
10:48AM 37.0139 -106.8764 258° West 469 540 38,000  Level Denver Center
10:49AM 36.9825 -107.0531 258° West 467 537 38,000  Level Denver Center
10:50AM 36.9553 -107.2050 257° West 467 537 38,000  Level Denver Center
10:51AM 36.9236 -107.3797 257° West 464 534 38,000  Level Denver Center
10:52AM 36.8967 -107.5286 257° West 461 531 38,000  Level Denver Center
10:53AM 36.8656 -107.7000 257° West 455 524 38,000  Level Denver Center
10:55AM 36.8378 -107.8467 257° West 455 524 38,000  Level Denver Center
10:56AM 36.8064 -108.0161 257° West 450 518 38,000  Level Denver Center
10:57AM 36.7786 -108.1611 257° West 449 517 38,000  Level Denver Center
10:58AM 36.7483 -108.3275 257° West 445 512 38,000  Level Denver Center
10:59AM 36.7219 -108.4689 257° West 441 507 38,000  Level Denver Center
11:00AM 36.6892 -108.6342 256° West 441 507 38,000  Level Denver Center
11:01AM 36.6608 -108.7786 256° West 447 514 38,000  Level Denver Center
11:02AM 36.6275 -108.9439 256° West 444 511 38,000  Level Denver Center
11:03AM 36.5997 -109.0869 256° West 446 513 38,000  Level Denver Center
11:08AM 36.4390 -109.8860 256° West 442 509 38,000  Level FlightAware
11:09AM 36.4240 -109.9590 256° West 442 509 38,000 -600 Level FlightAware
11:09AM 36.4020 -110.0660 256° West 449 517 37,300 -1,020 Descending FlightAware
11:10AM 36.3830 -110.1540 255° West 454 522 36,700 -1,020 Descending FlightAware
11:10AM 36.3650 -110.2460 256° West 457 526 36,100 -1,020 Descending FlightAware
11:11AM 36.3450 -110.3400 255° West 454 522 35,500 -960 Descending FlightAware
11:12AM 36.3240 -110.4400 255° West 446 513 34,900 -1,020 Descending FlightAware
11:12AM 36.3070 -110.5220 256° West 440 506 34,300 -960 Descending FlightAware
11:13AM 36.2880 -110.6110 255° West 439 505 33,800 -1,020 Descending FlightAware
11:13AM 36.2690 -110.6970 255° West 431 496 33,100 -1,140 Descending FlightAware
11:14AM 36.2510 -110.7830 255° West 426 490 32,500 -1,020 Descending FlightAware
11:15AM 36.2350 -110.8580 255° West 428 493 32,000 -1,020 Descending FlightAware
11:15AM 36.2170 -110.9440 255° West 422 486 31,400 -1,080 Descending FlightAware
11:16AM 36.2000 -111.0200 255° West 421 484 30,800 -1,080 Descending FlightAware
11:16AM 36.1830 -111.1010 255° West 416 479 30,200 -720 Descending FlightAware
11:17AM 36.1640 -111.1860 255° West 415 478 30,000 -180 Descending FlightAware
11:18AM 36.1470 -111.2660 255° West 422 486 30,000  Level FlightAware
11:18AM 36.1290 -111.3460 254° West 430 495 30,000  Level FlightAware
11:19AM 36.1110 -111.4300 255° West 429 494 30,000  Level FlightAware
11:19AM 36.0930 -111.5130 255° West 428 493 30,000  Level FlightAware
11:20AM 36.0730 -111.6010 254° West 427 491 30,000  Level FlightAware
11:21AM 36.0540 -111.6860 255° West 427 491 30,000  Level FlightAware
11:21AM 36.0370 -111.7620 255° West 428 493 30,000  Level FlightAware
11:22AM 36.0190 -111.8420 254° West 430 495 30,000  Level FlightAware
11:22AM 35.9990 -111.9320 255° West 429 494 30,000 -120 Level FlightAware
11:23AM 35.9800 -112.0160 254° West 425 489 29,900 -660 Descending FlightAware
11:23AM 35.9640 -112.0900 255° West 418 481 29,300 -1,080 Descending FlightAware
11:24AM 35.9440 -112.1770 254° West 408 470 28,700 -1,080 Descending FlightAware
11:25AM 35.9280 -112.2480 254° West 402 463 28,100 -1,080 Descending FlightAware
11:25AM 35.9120 -112.3170 254° West 400 460 27,600 -1,020 Descending FlightAware
11:26AM 35.8950 -112.3930 255° West 396 456 27,000 -1,080 Descending FlightAware
11:26AM 35.8750 -112.4780 254° West 385 443 26,300 -1,020 Descending FlightAware
11:27AM 35.8590 -112.5480 254° West 383 441 25,800 -1,020 Descending FlightAware
11:27AM 35.8430 -112.6200 255° West 380 437 25,200 -1,020 Descending FlightAware
11:28AM 35.8250 -112.6960 254° West 373 429 24,600 -1,080 Descending FlightAware
11:29AM 35.8090 -112.7650 254° West 369 425 24,000 -1,080 Descending FlightAware
11:29AM 35.7930 -112.8350 254° West 364 419 23,400 -1,020 Descending FlightAware
11:30AM 35.7760 -112.9070 254° West 360 414 22,800 -1,020 Descending FlightAware
11:30AM 35.7620 -112.9680 254° West 350 403 22,300 -1,020 Descending FlightAware
11:31AM 35.7460 -113.0340 253° West 342 394 21,700 -1,020 Descending FlightAware
11:32AM 35.7300 -113.1030 254° West 341 392 21,100 -1,020 Descending FlightAware
11:32AM 35.7140 -113.1700 254° West 338 389 20,500 -960 Descending FlightAware
11:33AM 35.6980 -113.2380 254° West 340 391 20,000 -480 Descending FlightAware
11:33AM 35.6840 -113.2940 253° West 338 389 20,000  Level FlightAware
11:34AM 35.6680 -113.3630 254° West 337 388 20,000  Level FlightAware
11:34AM 35.6530 -113.4280 254° West 336 387 20,000  Level FlightAware
11:35AM 35.6370 -113.4940 253° West 335 386 20,000  Level FlightAware
11:36AM 35.6280 -113.5570 260° West 337 388 20,000 -420 Level FlightAware
11:36AM 35.6340 -113.6070 278° West 336 387 19,600 -1,020 Descending FlightAware
11:37AM 35.6430 -113.6710 280° West 337 388 19,000 -1,020 Descending FlightAware
11:37AM 35.6530 -113.7420 280° West 332 382 18,400 -1,020 Descending FlightAware
11:38AM 35.6620 -113.8030 280° West 329 379 17,800 -1,020 Descending FlightAware
11:38AM 35.6710 -113.8700 279° West 325 374 17,200 -1,020 Descending FlightAware
11:39AM 35.6790 -113.9290 279° West 323 372 16,600 -1,080 Descending FlightAware
11:40AM 35.6890 -113.9980 280° West 318 366 16,000 -960 Descending FlightAware
11:40AM 35.6970 -114.0570 279° West 316 364 15,500 -1,020 Descending FlightAware
11:41AM 35.7050 -114.1110 280° West 312 359 14,900 -660 Descending FlightAware
11:41AM 35.7130 -114.1750 279° West 309 356 14,700 -180 Descending FlightAware
11:42AM 35.7200 -114.2260 280° West 309 356 14,700 -1,680 Level FlightAware
11:43AM 35.7310 -114.2980 281° West 302 348 12,900 -2,340 Descending FlightAware
11:43AM 35.7400 -114.3590 280° West 292 336 12,100 -1,080 Descending FlightAware
11:43AM 35.7510 -114.3800 303° West 287 330 12,000 -240 Descending FlightAware
11:44AM 35.7640 -114.3920 323° Northwest 288 331 12,000  Level FlightAware
11:44AM 35.8060 -114.4130 338° Northwest 288 331 12,000  Level FlightAware
11:45AM 35.8490 -114.4330 339° North 288 331 12,000 -540 Level FlightAware
11:45AM 35.8940 -114.4540 339° North 280 322 11,400 -1,080 Descending FlightAware
11:46AM 35.9100 -114.4660 329° Northwest 274 315 11,100 -780 Descending FlightAware
11:46AM 35.9250 -114.4850 314° West 261 300 11,000 -900 Descending FlightAware
11:46AM 35.9470 -114.5230 306° West 254 292 10,400 -1,800 Descending FlightAware
11:47AM 35.9600 -114.5420 310° West 272 313 9,600 -2,700 Descending FlightAware
11:47AM 35.9750 -114.5670 307° West 286 329 8,800 -1,980 Descending FlightAware
11:47AM 35.9920 -114.5940 308° West 287 330 8,300 -1,020 Descending FlightAware
11:48AM 36.0130 -114.6280 307° West 273 314 8,000 -300 Descending FlightAware
11:48AM 36.0350 -114.6660 306° West 265 305 8,000 -240 Level FlightAware
11:50AM 36.0730 -114.7750 293° West 251 289 7,600 -420 Descending FlightAware
11:50AM 36.0730 -114.8060 270° West 247 284 7,300 -960 Descending FlightAware
11:50AM 36.0730 -114.8320 270° West 246 283 7,000 -1,020 Descending FlightAware
11:51AM 36.0740 -114.8640 272° West 239 275 6,600 -1,440 Descending FlightAware
11:51AM 36.0740 -114.9030 270° West 245 282 5,800 -1,680 Descending FlightAware
11:52AM 36.0740 -114.9190 270° West 235 270 5,500 -1,140 Descending FlightAware
11:52AM 36.0740 -114.9450 270° West 213 245 5,200 -900 Descending FlightAware
11:52AM 36.0740 -114.9700 270° West 197 227 4,900 -1,200 Descending FlightAware
11:53AM 36.0740 -114.9980 270° West 194 223 4,300 -1,440 Descending FlightAware
11:53AM 36.0740 -115.0190 270° West 182 209 3,800 -1,440 Descending FlightAware
11:53AM 36.0740 -115.0370 270° West 175 201 3,400 -1,200 Descending FlightAware
11:54AM 36.0740 -115.0560 270° West 172 198 3,100 -840 Descending FlightAware
11:54AM 36.0740 -115.0790 270° West 169 194 2,800 -780 Descending FlightAware
11:54AM 36.0740 -115.0970 270° West 168 193 2,500 -960 Descending FlightAware
11:55AM 36.0740 -115.1140 270° West 166 191 2,200 -420 Descending FlightAware
11:55AM 36.0740 -115.1370 270° West 166 191 2,200  Level FlightAware
12:03PM 36.0667 -115.1500 270° West  Level FlightAware Approximate